Time;durP1;ratioP1;P1;durP2;ratioP2;P2;SDS_P1;SDS_P2;PMS_P1;PMS_P2;Temp;Humidity;BMP_temperature;BMP_pressure;BME280_temperature;BME280_humidity;BME280_pressure;Samples;Min_cycle;Max_cycle;Signal;HPM_P1;HPM_P2
2022/06/21 00:01:16;;;;;;;5.70;2.78;;;13.00;78.90;;;;;;5040070;28;20112;-70
2022/06/21 00:03:43;;;;;;;6.80;3.33;;;12.90;79.20;;;;;;5042264;28;20120;-70
2022/06/21 00:06:15;;;;;;;9.27;2.92;;;12.80;79.10;;;;;;5014720;28;20041;-71
2022/06/21 00:08:41;;;;;;;6.53;3.10;;;12.80;79.50;;;;;;5026244;28;20025;-71
2022/06/21 00:11:34;;;;;;;11.80;3.05;;;12.80;79.40;;;;;;5037500;28;20029;-70
2022/06/21 00:14:00;;;;;;;5.80;3.45;;;12.80;79.50;;;;;;5037738;28;20037;-71
2022/06/21 00:16:29;;;;;;;7.35;3.10;;;12.70;79.70;;;;;;5031851;28;20042;-71
2022/06/21 00:18:55;;;;;;;8.13;2.80;;;12.70;79.70;;;;;;5023447;28;20017;-71
2022/06/21 00:21:24;;;;;;;4.68;2.90;;;12.60;79.70;;;;;;5038322;28;20036;-70
2022/06/21 00:23:51;;;;;;;6.35;3.03;;;12.70;79.40;;;;;;5033885;28;20087;-71
2022/06/21 00:26:19;;;;;;;9.27;3.08;;;12.60;79.50;;;;;;5044410;28;20032;-70
2022/06/21 00:28:45;;;;;;;5.50;2.60;;;12.70;79.10;;;;;;5032347;28;20021;-71
2022/06/21 00:31:20;;;;;;;4.53;2.92;;;12.60;78.70;;;;;;5039187;28;20049;-72
2022/06/21 00:33:46;;;;;;;6.90;2.80;;;12.50;78.90;;;;;;5041478;28;20397;-72
2022/06/21 00:36:26;;;;;;;5.00;2.63;;;12.50;78.80;;;;;;5030239;28;20041;-71
2022/06/21 00:38:53;;;;;;;5.57;2.60;;;12.50;78.50;;;;;;5040881;28;20028;-70
2022/06/21 00:41:27;;;;;;;5.35;2.55;;;12.50;78.40;;;;;;5020032;28;20029;-69
2022/06/21 00:43:53;;;;;;;7.45;2.92;;;12.50;78.70;;;;;;5032954;28;20048;-71
2022/06/21 00:46:32;;;;;;;6.63;2.70;;;12.50;79.00;;;;;;5044127;28;20490;-70
2022/06/21 00:49:01;;;;;;;8.48;3.58;;;12.40;79.40;;;;;;5033828;28;20104;-70
2022/06/21 00:51:41;;;;;;;7.97;3.53;;;12.30;80.00;;;;;;5036540;28;20030;-71
2022/06/21 00:54:23;;;;;;;7.97;3.20;;;12.20;79.90;;;;;;5026122;28;20106;-71
2022/06/21 00:57:11;;;;;;;;;;;12.20;80.00;;;;;;5033925;28;20487;-71
2022/06/21 00:59:37;;;;;;;8.85;3.05;;;12.20;79.90;;;;;;5034229;28;20350;-71
2022/06/21 01:02:14;;;;;;;7.45;3.00;;;12.10;79.50;;;;;;5043718;28;20064;-71
2022/06/21 01:04:47;;;;;;;6.30;2.70;;;12.10;79.70;;;;;;5017188;28;20512;-70
2022/06/21 01:07:14;;;;;;;4.72;2.78;;;12.10;79.50;;;;;;5037443;28;20029;-71
2022/06/21 01:09:46;;;;;;;10.65;3.35;;;12.10;79.60;;;;;;5039993;28;20397;-70
2022/06/21 01:12:17;;;;;;;7.00;2.90;;;12.00;80.00;;;;;;5023879;28;20022;-71
2022/06/21 01:14:50;;;;;;;6.47;3.28;;;12.00;80.20;;;;;;5032418;28;20017;-69
2022/06/21 01:17:17;;;;;;;4.07;2.80;;;12.00;80.70;;;;;;5036983;28;20521;-70
2022/06/21 01:19:59;;;;;;;6.07;3.15;;;11.90;80.50;;;;;;5022762;28;20021;-70
2022/06/21 01:22:58;;;;;;;8.10;3.35;;;11.90;80.40;;;;;;5030753;28;20032;-68
2022/06/21 01:25:41;;;;;;;5.72;3.17;;;11.90;80.60;;;;;;5039699;28;20094;-72
2022/06/21 01:28:09;;;;;;;10.50;3.58;;;11.90;80.90;;;;;;5042717;28;20032;-70
2022/06/21 01:30:34;;;;;;;5.82;3.83;;;11.80;81.20;;;;;;5031467;28;20040;-69
2022/06/21 01:33:01;;;;;;;6.22;3.40;;;11.70;81.70;;;;;;5039500;28;20057;-70
2022/06/21 01:35:29;;;;;;;9.30;4.18;;;11.70;81.80;;;;;;5038058;28;20052;-70
2022/06/21 01:37:56;;;;;;;6.95;4.10;;;11.70;82.00;;;;;;5031253;28;20479;-71
2022/06/21 01:40:29;;;;;;;9.40;4.57;;;11.70;82.40;;;;;;5043510;28;20025;-71
2022/06/21 01:43:01;;;;;;;7.30;3.80;;;11.70;82.50;;;;;;5034043;28;20062;-70
2022/06/21 01:45:36;;;;;;;9.38;4.38;;;11.70;82.90;;;;;;5035872;28;20395;-71
2022/06/21 01:48:09;;;;;;;13.07;5.47;;;11.70;82.90;;;;;;5045434;28;20029;-68
2022/06/21 01:50:37;;;;;;;8.25;4.40;;;11.70;82.90;;;;;;5001431;28;20021;-69
2022/06/21 01:53:03;;;;;;;14.85;4.40;;;11.70;83.20;;;;;;5042835;28;20502;-69
2022/06/21 01:55:35;;;;;;;15.48;4.90;;;11.70;82.80;;;;;;5041820;28;20499;-70
2022/06/21 01:58:04;;;;;;;9.30;4.60;;;11.60;82.90;;;;;;5033798;28;20535;-71
2022/06/21 02:00:33;;;;;;;9.63;4.97;;;11.70;82.80;;;;;;5046930;28;20021;-70
2022/06/21 02:03:15;;;;;;;9.38;3.92;;;11.70;82.70;;;;;;5037605;28;20048;-70
2022/06/21 02:05:46;;;;;;;9.90;4.28;;;11.60;82.60;;;;;;5037438;28;20029;-70
2022/06/21 02:08:14;;;;;;;8.23;3.90;;;11.70;82.50;;;;;;5045744;28;20486;-72
2022/06/21 02:10:47;;;;;;;6.68;3.70;;;11.60;82.70;;;;;;5035222;28;20017;-70
2022/06/21 02:13:20;;;;;;;9.85;4.07;;;11.60;82.30;;;;;;5044075;28;20143;-70
2022/06/21 02:15:48;;;;;;;8.38;4.18;;;;;;;;;;5018706;28;20030;-70
2022/06/21 02:18:15;;;;;;;8.18;4.20;;;;;;;;;;5028063;28;20518;-71
2022/06/21 02:20:53;;;;;;;6.07;4.00;;;11.60;82.20;;;;;;5034994;28;20100;-70
2022/06/21 02:23:22;;;;;;;11.05;4.00;;;11.50;82.20;;;;;;5040200;28;20077;-71
2022/06/21 02:25:49;;;;;;;6.10;4.15;;;11.50;82.10;;;;;;5043915;28;20021;-70
2022/06/21 02:28:17;;;;;;;11.50;4.57;;;11.50;82.00;;;;;;5032324;28;20029;-70
2022/06/21 02:30:45;;;;;;;5.70;3.75;;;11.50;81.90;;;;;;5044847;28;20074;-69
2022/06/21 02:33:27;;;;;;;12.25;4.30;;;11.50;82.30;;;;;;5038171;28;20045;-70
2022/06/21 02:36:07;;;;;;;10.55;4.05;;;11.50;81.80;;;;;;5017469;28;20036;-70
2022/06/21 02:38:56;;;;;;;9.25;4.30;;;11.50;82.00;;;;;;5016726;28;20025;-70
2022/06/21 02:41:41;;;;;;;7.03;3.67;;;11.40;81.30;;;;;;5039188;28;20038;-70
2022/06/21 02:44:21;;;;;;;7.55;3.55;;;11.40;80.90;;;;;;5046260;28;20033;-71
2022/06/21 02:46:53;;;;;;;9.98;3.83;;;11.50;81.00;;;;;;5035434;28;20017;-70
2022/06/21 02:49:26;;;;;;;8.93;3.85;;;11.50;80.90;;;;;;5038678;28;20489;-68
2022/06/21 02:51:59;;;;;;;7.78;4.18;;;11.40;80.90;;;;;;5044058;28;20090;-68
2022/06/21 02:54:37;;;;;;;7.40;3.58;;;11.50;80.70;;;;;;5032932;28;20033;-70
2022/06/21 02:57:14;;;;;;;8.32;3.55;;;11.50;80.50;;;;;;5023232;28;20017;-72
2022/06/21 02:59:42;;;;;;;7.60;3.67;;;11.50;80.40;;;;;;5041278;28;20541;-69
2022/06/21 03:02:14;;;;;;;9.35;4.05;;;11.60;80.20;;;;;;5032600;28;20032;-69
2022/06/21 03:04:47;;;;;;;292.15;157.02;;;11.60;79.90;;;;;;5044405;28;20490;-69
2022/06/21 03:07:20;;;;;;;170.73;87.28;;;11.70;79.80;;;;;;5019916;28;20035;-69
2022/06/21 03:09:45;;;;;;;9.20;3.97;;;11.60;79.90;;;;;;5035521;28;20562;-70
2022/06/21 03:12:17;;;;;;;23.20;9.55;;;11.60;79.40;;;;;;5040012;28;20096;-68
2022/06/21 03:14:44;;;;;;;9.30;4.55;;;11.70;79.10;;;;;;5043868;28;20018;-70
2022/06/21 03:17:10;;;;;;;67.32;33.97;;;11.80;79.00;;;;;;5036615;28;20522;-70
2022/06/21 03:19:54;;;;;;;11.13;4.93;;;12.00;78.50;;;;;;5036343;28;20064;-69
2022/06/21 03:22:27;;;;;;;9.43;4.00;;;12.20;78.10;;;;;;5045503;28;20025;-70
2022/06/21 03:24:56;;;;;;;6.95;2.85;;;12.40;76.90;;;;;;5036014;28;20054;-69
2022/06/21 03:27:49;;;;;;;6.50;3.05;;;12.70;76.00;;;;;;5019889;28;20112;-69
2022/06/21 03:30:17;;;;;;;9.00;2.75;;;13.40;73.30;;;;;;5045513;28;20021;-70
2022/06/21 03:32:43;;;;;;;7.63;2.80;;;13.60;72.00;;;;;;5016375;28;20025;-71
2022/06/21 03:35:10;;;;;;;7.53;2.97;;;13.40;72.00;;;;;;5040113;28;20375;-70
2022/06/21 03:37:39;;;;;;;6.45;2.75;;;13.20;72.80;;;;;;5040170;28;20115;-70
2022/06/21 03:42:54;;;;;;;7.13;2.90;;;12.80;74.20;;;;;;5021468;28;20154;-68
2022/06/21 03:45:40;;;;;;;5.03;2.72;;;12.70;74.80;;;;;;5038554;28;20045;-70
2022/06/21 03:48:22;;;;;;;8.30;2.97;;;12.60;75.00;;;;;;5026283;28;20025;-70
2022/06/21 03:50:59;;;;;;;4.40;2.78;;;12.70;74.80;;;;;;5020676;28;20019;-69
2022/06/21 03:53:38;;;;;;;7.47;3.10;;;12.70;74.80;;;;;;5037692;28;20109;-70
2022/06/21 03:56:13;;;;;;;6.45;2.97;;;12.70;74.70;;;;;;5026862;28;20531;-70
2022/06/21 03:58:58;;;;;;;4.65;2.95;;;12.70;74.80;;;;;;5017052;28;20032;-69
2022/06/21 04:01:40;;;;;;;6.68;2.85;;;13.30;74.50;;;;;;5037846;28;20039;-71
2022/06/21 04:04:32;;;;;;;6.75;2.35;;;14.70;69.90;;;;;;5045099;28;20441;-70
2022/06/21 04:07:15;;;;;;;3.22;1.95;;;16.50;63.70;;;;;;5023119;28;20089;-67
2022/06/21 04:09:45;;;;;;;4.78;2.38;;;;;;;;;;5035544;28;20075;-69
2022/06/21 04:12:14;;;;;;;6.35;2.67;;;;;;;;;;5021803;28;20031;-70
2022/06/21 04:14:47;;;;;;;6.75;2.13;;;;;;;;;;5044226;28;20531;-70
2022/06/21 04:17:17;;;;;;;3.13;1.70;;;;;;;;;;5019482;28;20033;-70
2022/06/21 04:19:46;;;;;;;8.20;1.95;;;;;;;;;;5035239;28;20030;-71
2022/06/21 04:22:37;;;;;;;5.32;2.00;;;22.00;46.00;;;;;;5045265;28;20025;-71
2022/06/21 04:25:13;;;;;;;6.72;1.67;;;22.00;46.00;;;;;;5036623;28;20026;-70
2022/06/21 04:27:58;;;;;;;5.97;1.92;;;22.90;43.80;;;;;;5035246;28;20461;-71
2022/06/21 04:30:49;;;;;;;5.88;1.60;;;23.70;41.80;;;;;;5044817;28;20025;-70
2022/06/21 04:33:18;;;;;;;6.43;2.08;;;23.40;42.00;;;;;;5037698;28;20025;-70
2022/06/21 04:36:08;;;;;;;4.75;2.20;;;23.70;40.90;;;;;;5034710;28;20428;-71
2022/06/21 04:39:00;;;;;;;8.02;1.77;;;23.80;41.00;;;;;;5016139;28;20104;-71
2022/06/21 04:41:37;;;;;;;5.70;1.88;;;24.20;40.60;;;;;;5037454;28;20025;-71
2022/06/21 04:44:06;;;;;;;7.20;2.50;;;;;;;;;;5044843;28;20025;-71
2022/06/21 04:46:51;;;;;;;6.82;1.95;;;;;;;;;;5014705;28;20394;-72
2022/06/21 04:49:20;;;;;;;6.95;1.98;;;;;;;;;;5038175;28;20025;-71
2022/06/21 04:52:06;;;;;;;5.47;1.73;;;;;;;;;;5041888;28;20029;-71
2022/06/21 04:54:33;;;;;;;9.27;1.73;;;;;;;;;;5015214;28;20161;-70
2022/06/21 04:57:24;;;;;;;5.90;1.67;;;26.50;35.80;;;;;;5040468;28;20424;-71
2022/06/21 05:00:04;;;;;;;5.50;2.05;;;26.80;35.20;;;;;;5042503;28;20032;-71
2022/06/21 05:02:31;;;;;;;5.40;1.80;;;;;;;;;;5013829;28;20126;-70
2022/06/21 05:05:04;;;;;;;4.53;2.15;;;25.50;37.50;;;;;;5040298;28;20022;-71
2022/06/21 05:07:33;;;;;;;8.32;2.00;;;25.30;37.90;;;;;;5046558;28;20040;-70
2022/06/21 05:10:00;;;;;;;11.50;2.10;;;24.30;39.50;;;;;;5042115;28;20033;-71
2022/06/21 05:12:35;;;;;;;6.50;1.85;;;22.30;43.60;;;;;;5020590;28;20103;-71
2022/06/21 05:15:21;;;;;;;13.02;3.40;;;21.10;46.90;;;;;;5016304;28;20048;-70
2022/06/21 05:17:54;;;;;;;8.10;2.30;;;20.10;49.30;;;;;;5062846;22;20425;-68
2022/06/21 05:20:26;;;;;;;7.57;2.28;;;19.60;51.50;;;;;;5029205;28;20029;-69
2022/06/21 05:22:58;;;;;;;9.18;2.35;;;19.50;51.80;;;;;;5044209;28;20018;-69
2022/06/21 05:25:31;;;;;;;8.55;2.10;;;19.50;52.30;;;;;;5041609;28;20021;-67
2022/06/21 05:28:09;;;;;;;8.10;2.15;;;21.20;49.00;;;;;;5034230;28;20520;-69
2022/06/21 05:30:45;;;;;;;8.60;2.15;;;21.70;46.80;;;;;;5041107;28;20481;-69
2022/06/21 05:33:22;;;;;;;5.63;1.98;;;21.40;47.50;;;;;;5029074;28;20406;-70
2022/06/21 05:35:49;;;;;;;8.30;1.90;;;21.40;47.80;;;;;;5035242;28;20045;-69
2022/06/21 05:38:18;;;;;;;9.15;2.45;;;;;;;;;;5045216;28;20137;-70
2022/06/21 05:40:48;;;;;;;7.57;2.22;;;;;;;;;;5034060;28;20032;-69
2022/06/21 05:43:16;;;;;;;6.35;1.88;;;;;;;;;;5039267;28;20033;-68
2022/06/21 05:45:49;;;;;;;11.50;2.45;;;21.10;47.90;;;;;;5042105;28;20025;-69
2022/06/21 05:48:22;;;;;;;7.78;2.72;;;20.80;48.90;;;;;;5032522;28;20117;-70
2022/06/21 05:50:48;;;;;;;10.23;2.42;;;20.00;51.30;;;;;;5047306;27;20025;-69
2022/06/21 05:53:37;;;;;;;12.27;3.10;;;19.70;52.60;;;;;;5042911;28;20021;-69
2022/06/21 05:56:13;;;;;;;8.52;2.13;;;19.20;53.90;;;;;;5033672;28;20018;-70
2022/06/21 05:58:46;;;;;;;7.03;2.65;;;19.40;53.60;;;;;;5017402;28;20032;-69
2022/06/21 06:01:33;;;;;;;8.02;2.78;;;19.00;54.70;;;;;;5039769;28;20490;-70
2022/06/21 06:04:06;;;;;;;11.20;2.70;;;18.70;55.60;;;;;;5044779;28;20036;-67
2022/06/21 06:06:36;;;;;;;7.03;2.05;;;19.10;56.70;;;;;;5016579;28;20030;-66
2022/06/21 06:09:10;;;;;;;6.40;2.63;;;19.70;53.60;;;;;;5040447;28;20529;-67
2022/06/21 06:12:00;;;;;;;6.15;2.00;;;;;;;;;;5020177;28;20029;-66
2022/06/21 06:14:49;;;;;;;7.88;1.88;;;22.70;46.90;;;;;;5046601;28;20029;-66
2022/06/21 06:17:26;;;;;;;6.53;1.60;;;24.00;42.20;;;;;;5039414;28;20044;-67
2022/06/21 06:20:04;;;;;;;8.88;1.90;;;;;;;;;;5034839;28;20026;-66
2022/06/21 06:22:57;;;;;;;3.72;1.52;;;;;;;;;;5046644;28;20481;-67
2022/06/21 06:25:28;;;;;;;10.18;1.60;;;;;;;;;;5032293;28;20079;-67
2022/06/21 06:27:54;;;;;;;6.53;1.23;;;29.60;32.50;;;;;;5042933;28;20053;-67
2022/06/21 06:30:43;;;;;;;6.80;1.80;;;;;;;;;;5046020;28;20017;-67
2022/06/21 06:33:15;;;;;;;3.70;1.35;;;;;;;;;;5035690;28;20051;-67
2022/06/21 06:35:43;;;;;;;4.60;1.60;;;30.30;29.70;;;;;;5036667;28;20387;-68
2022/06/21 06:38:13;;;;;;;6.85;1.48;;;30.60;30.10;;;;;;5046001;28;20582;-67
2022/06/21 06:40:45;;;;;;;4.50;1.85;;;30.30;30.00;;;;;;5033563;27;20157;-70
2022/06/21 06:43:23;;;;;;;7.22;1.75;;;31.20;29.10;;;;;;5018480;28;20033;-68
2022/06/21 06:45:50;;;;;;;4.78;1.63;;;31.60;28.50;;;;;;5040410;28;20109;-69
2022/06/21 06:48:30;;;;;;;5.78;1.55;;;31.90;27.60;;;;;;5033176;28;20033;-68
2022/06/21 06:51:15;;;;;;;7.85;1.65;;;31.20;29.60;;;;;;5020767;28;20028;-70
2022/06/21 06:53:50;;;;;;;65.57;48.97;;;31.40;28.50;;;;;;5038093;28;20032;-70
2022/06/21 06:56:19;;;;;;;4.82;1.83;;;;;;;;;;5045890;28;20033;-72
2022/06/21 06:58:49;;;;;;;26.20;15.77;;;;;;;;;;5028310;28;20041;-71
2022/06/21 07:01:16;;;;;;;14.13;5.47;;;;;;;;;;5041584;28;20026;-73
2022/06/21 07:03:49;;;;;;;20.00;9.88;;;29.40;30.30;;;;;;5041348;28;20498;-72
2022/06/21 07:06:33;;;;;;;3.47;1.40;;;29.00;31.40;;;;;;5033316;28;20043;-71
2022/06/21 07:09:10;;;;;;;7.75;3.10;;;27.90;32.80;;;;;;5020881;28;20504;-73
2022/06/21 07:11:38;;;;;;;10.65;4.13;;;26.40;35.30;;;;;;5038905;28;20077;-71
2022/06/21 07:14:12;;;;;;;6.30;1.90;;;26.00;36.90;;;;;;5043102;28;20048;-70
2022/06/21 07:16:42;;;;;;;5.43;2.45;;;26.00;35.30;;;;;;5045385;28;20090;-71
2022/06/21 07:19:10;;;;;;;7.72;2.35;;;25.50;36.90;;;;;;5036056;28;20036;-71
2022/06/21 07:21:37;;;;;;;9.45;4.00;;;26.80;35.20;;;;;;5038625;28;20033;-70
2022/06/21 07:24:08;;;;;;;5.88;2.25;;;28.50;33.50;;;;;;5044079;28;20029;-71
2022/06/21 07:26:38;;;;;;;;;;;29.10;31.80;;;;;;5033200;28;20108;-72
2022/06/21 07:29:09;;;;;;;5.70;2.20;;;;;;;;;;5042479;28;20293;-74
2022/06/21 07:31:53;;;;;;;8.15;3.45;;;30.90;29.40;;;;;;5040066;28;20025;-72
2022/06/21 07:34:25;;;;;;;7.78;2.35;;;;;;;;;;5016697;28;20021;-69
2022/06/21 07:36:54;;;;;;;6.43;1.65;;;;;;;;;;5044457;28;20021;-68
2022/06/21 07:39:32;;;;;;;4.15;1.40;;;31.40;27.20;;;;;;5018890;28;20029;-68
2022/06/21 07:42:20;;;;;;;4.25;1.75;;;31.20;27.20;;;;;;5017391;28;20036;-70
2022/06/21 07:45:02;;;;;;;15.85;10.93;;;31.30;27.80;;;;;;5017173;28;20423;-70
2022/06/21 07:47:53;;;;;;;24.77;17.42;;;32.70;26.60;;;;;;5021268;28;20104;-70
2022/06/21 07:50:28;;;;;;;7.40;3.55;;;32.80;25.10;;;;;;5027404;28;20022;-70
2022/06/21 07:53:09;;;;;;;13.73;7.20;;;31.70;26.60;;;;;;5043812;28;20399;-72
2022/06/21 07:55:48;;;;;;;10.32;4.75;;;31.00;28.20;;;;;;5039790;28;20097;-70
2022/06/21 07:58:24;;;;;;;12.02;7.13;;;30.90;27.80;;;;;;5014951;28;20409;-70
2022/06/21 08:06:41;;;;;;;6.95;3.75;;;28.90;30.90;;;;;;5046001;28;20125;-72
2022/06/21 08:09:13;;;;;;;6.60;2.13;;;29.00;30.20;;;;;;5036120;28;20082;-72
2022/06/21 08:11:42;;;;;;;10.73;4.22;;;29.80;29.20;;;;;;5037861;28;20036;-71
2022/06/21 08:14:09;;;;;;;6.32;2.63;;;29.00;30.00;;;;;;5044331;28;20130;-70
2022/06/21 08:16:57;;;;;;;8.02;2.67;;;27.60;31.80;;;;;;5029298;28;20544;-69
2022/06/21 08:19:43;;;;;;;10.43;6.55;;;26.80;33.40;;;;;;5027124;28;20033;-70
2022/06/21 08:22:16;;;;;;;9.13;4.70;;;;;;;;;;5027749;28;20030;-70
2022/06/21 08:24:50;;;;;;;7.68;3.35;;;30.00;29.90;;;;;;5028574;28;20037;-69
2022/06/21 08:27:15;;;;;;;10.32;3.17;;;30.20;28.80;;;;;;5027197;28;20064;-69
2022/06/21 08:29:47;;;;;;;5.97;2.42;;;28.70;30.50;;;;;;5028797;28;20064;-69
2022/06/21 08:32:38;;;;;;;7.43;3.08;;;28.50;31.30;;;;;;5028847;28;20383;-70
2022/06/21 08:35:28;;;;;;;11.75;3.70;;;29.20;30.90;;;;;;5028844;28;20479;-70
2022/06/21 08:38:25;;;;;;;5.53;1.90;;;27.80;32.10;;;;;;5028078;28;20037;-68
2022/06/21 08:41:09;;;;;;;3.47;1.55;;;26.40;34.00;;;;;;5028840;28;20551;-68
2022/06/21 08:43:58;;;;;;;4.40;1.98;;;26.90;33.50;;;;;;5028705;28;20036;-68
2022/06/21 08:46:49;;;;;;;4.13;2.30;;;28.10;31.70;;;;;;5011554;28;20034;-70
2022/06/21 08:49:48;;;;;;;4.20;1.58;;;28.60;31.60;;;;;;5028265;28;20057;-69
2022/06/21 08:52:23;;;;;;;4.40;1.33;;;29.30;30.00;;;;;;5028303;28;20021;-70
2022/06/21 08:55:18;;;;;;;4.65;1.48;;;29.00;29.60;;;;;;5028536;28;20491;-69
2022/06/21 08:58:10;;;;;;;6.93;1.55;;;29.60;28.80;;;;;;5013340;28;20060;-70
2022/06/21 09:00:45;;;;;;;3.75;1.90;;;29.50;28.30;;;;;;5031737;28;20025;-69
2022/06/21 09:03:45;;;;;;;5.18;1.58;;;28.40;29.90;;;;;;5031816;28;20021;-68
2022/06/21 09:06:35;;;;;;;5.03;1.80;;;27.90;31.50;;;;;;5032092;28;20076;-68
2022/06/21 09:09:14;;;;;;;9.13;1.48;;;27.20;32.60;;;;;;5031414;28;20025;-68
2022/06/21 09:12:04;;;;;;;7.47;1.85;;;26.00;35.10;;;;;;5031627;28;20029;-69
2022/06/21 09:14:51;;;;;;;4.97;1.55;;;25.80;35.30;;;;;;5031607;28;20519;-68
2022/06/21 09:17:36;;;;;;;4.50;1.40;;;26.40;34.40;;;;;;5031356;28;20036;-69
2022/06/21 09:20:10;;;;;;;5.82;1.58;;;26.90;33.80;;;;;;5031687;28;20422;-70
2022/06/21 09:23:03;;;;;;;3.55;1.45;;;26.40;33.80;;;;;;5031275;28;20391;-69
2022/06/21 09:25:46;;;;;;;5.32;1.65;;;25.80;34.30;;;;;;5031890;28;20033;-70
2022/06/21 09:28:40;;;;;;;4.72;1.48;;;25.50;35.30;;;;;;5031153;28;20017;-69
2022/06/21 09:31:13;;;;;;;3.00;1.25;;;25.90;35.70;;;;;;5031572;28;20021;-69
2022/06/21 09:34:03;;;;;;;3.72;1.23;;;27.10;34.20;;;;;;5031490;28;20014;-69
2022/06/21 09:36:47;;;;;;;3.88;1.48;;;27.70;32.30;;;;;;5031222;28;20077;-70
2022/06/21 09:39:32;;;;;;;5.90;1.88;;;27.60;32.60;;;;;;5030730;28;20025;-69
2022/06/21 09:42:07;;;;;;;5.07;1.58;;;27.80;31.50;;;;;;5031198;28;20078;-69
2022/06/21 09:44:42;;;;;;;2.42;1.20;;;27.60;31.00;;;;;;5031265;28;20029;-69
2022/06/21 09:47:29;;;;;;;3.63;1.20;;;27.60;31.90;;;;;;5031017;28;20045;-68
2022/06/21 09:50:19;;;;;;;3.08;1.30;;;27.90;30.50;;;;;;5031509;28;20090;-69
2022/06/21 09:53:13;;;;;;;5.88;2.08;;;28.00;32.30;;;;;;5031150;28;20018;-69
2022/06/21 09:56:14;;;;;;;7.43;1.90;;;28.10;31.30;;;;;;5031168;28;20033;-69
2022/06/21 09:58:39;;;;;;;6.85;1.70;;;27.50;31.60;;;;;;5031076;28;20371;-69
2022/06/21 10:01:17;;;;;;;8.45;1.35;;;27.20;31.70;;;;;;5031046;28;20033;-68
2022/06/21 10:03:53;;;;;;;13.80;1.58;;;26.60;32.00;;;;;;5031124;28;20411;-70
2022/06/21 10:06:36;;;;;;;2.83;0.95;;;26.00;33.10;;;;;;5030869;28;20382;-69
2022/06/21 10:09:25;;;;;;;10.30;1.17;;;26.50;33.00;;;;;;5030854;28;20449;-70
2022/06/21 10:12:18;;;;;;;6.38;1.45;;;26.30;33.50;;;;;;5031352;28;20049;-69
2022/06/21 10:15:12;;;;;;;6.50;1.70;;;25.90;34.90;;;;;;5031387;28;20487;-70
2022/06/21 10:17:59;;;;;;;5.97;1.50;;;25.50;34.60;;;;;;5031029;28;20040;-69
2022/06/21 10:20:52;;;;;;;5.45;1.60;;;25.60;33.80;;;;;;5031440;28;20018;-69
2022/06/21 10:23:42;;;;;;;6.03;1.90;;;26.00;33.60;;;;;;5030865;28;20097;-69
2022/06/21 10:26:23;;;;;;;6.00;1.65;;;26.30;34.20;;;;;;5012775;28;20018;-69
2022/06/21 10:28:57;;;;;;;3.75;1.27;;;26.40;34.70;;;;;;5030526;28;20037;-69
2022/06/21 10:31:34;;;;;;;10.32;1.73;;;25.90;35.10;;;;;;5030661;28;20033;-68
2022/06/21 10:34:17;;;;;;;6.65;1.50;;;26.00;34.80;;;;;;5030662;28;20072;-70
2022/06/21 10:37:20;;;;;;;7.47;1.63;;;25.90;34.30;;;;;;5030301;28;20030;-69
2022/06/21 10:40:20;;;;;;;4.78;1.20;;;25.10;35.10;;;;;;5030335;28;20033;-70
2022/06/21 10:43:16;;;;;;;2.13;1.35;;;24.60;35.20;;;;;;5030149;28;20108;-70
2022/06/21 10:45:53;;;;;;;5.15;1.30;;;24.50;35.60;;;;;;5012968;28;20070;-69
2022/06/21 10:48:42;;;;;;;5.28;1.70;;;24.50;36.60;;;;;;5030074;28;20055;-69
2022/06/21 10:51:24;;;;;;;3.78;1.33;;;24.50;37.20;;;;;;5030408;28;20099;-69
2022/06/21 10:53:55;;;;;;;3.85;1.48;;;24.40;36.90;;;;;;5030094;28;20382;-70
2022/06/21 11:02:54;;;;;;;189.85;129.00;;;23.70;37.30;;;;;;5030073;28;20039;-70
2022/06/21 11:05:32;;;;;;;8.63;4.05;;;23.40;38.90;;;;;;5030164;28;20483;-69
2022/06/21 11:08:22;;;;;;;12.77;3.60;;;23.20;38.70;;;;;;5029607;28;20026;-69
2022/06/21 11:10:56;;;;;;;4.97;1.55;;;23.10;39.10;;;;;;5030009;28;20056;-69
2022/06/21 11:13:30;;;;;;;6.15;1.73;;;23.20;39.10;;;;;;5029756;28;20105;-69
2022/06/21 11:16:13;;;;;;;4.93;1.40;;;23.10;38.70;;;;;;5011890;28;20026;-69
2022/06/21 11:19:07;;;;;;;4.30;1.60;;;23.00;37.70;;;;;;5047458;22;20057;-70
2022/06/21 11:21:33;;;;;;;5.00;1.30;;;;;;;;;;5011453;28;20026;-70
2022/06/21 11:23:59;;;;;;;5.70;1.38;;;;;;;;;;5029648;28;20037;-72
2022/06/21 11:26:33;;;;;;;4.03;1.63;;;22.40;40.00;;;;;;5029457;28;20052;-71
2022/06/21 11:29:26;;;;;;;5.20;1.60;;;22.60;41.40;;;;;;5009256;28;20036;-71
2022/06/21 11:31:57;;;;;;;6.75;1.48;;;22.70;39.80;;;;;;5009787;28;20026;-70
2022/06/21 11:34:30;;;;;;;7.88;1.55;;;22.80;39.90;;;;;;5009722;28;20054;-70
2022/06/21 11:37:24;;;;;;;6.65;1.73;;;22.70;39.20;;;;;;5009584;28;20046;-69
2022/06/21 11:40:00;;;;;;;5.18;1.40;;;22.80;39.10;;;;;;5009590;28;20033;-70
2022/06/21 11:42:52;;;;;;;4.28;1.20;;;22.30;39.00;;;;;;5009543;28;20018;-70
2022/06/21 11:45:37;;;;;;;4.30;1.60;;;22.30;40.50;;;;;;5074162;28;20442;-70
2022/06/21 11:48:10;;;;;;;55.72;26.90;;;22.50;40.20;;;;;;5009086;28;20030;-72
2022/06/21 11:51:09;;;;;;;5.80;2.45;;;22.50;40.90;;;;;;5009608;28;20022;-70
2022/06/21 11:54:10;;;;;;;7.00;1.40;;;22.50;40.10;;;;;;4992020;28;20030;-69
2022/06/21 11:57:02;;;;;;;7.93;2.58;;;21.90;43.00;;;;;;5002232;28;20033;-70
2022/06/21 11:59:37;;;;;;;8.13;3.15;;;22.20;42.60;;;;;;5009257;28;20317;-70
2022/06/21 12:02:03;;;;;;;14.00;2.20;;;22.40;41.80;;;;;;5009360;28;20041;-70
2022/06/21 12:04:38;;;;;;;6.40;1.48;;;21.70;41.80;;;;;;5009181;28;20030;-70
2022/06/21 12:07:07;;;;;;;3.70;1.20;;;21.30;42.10;;;;;;5009225;28;20518;-69
2022/06/21 12:10:10;;;;;;;14.13;5.55;;;21.50;43.10;;;;;;5009571;28;20113;-71
2022/06/21 12:12:50;;;;;;;2.88;1.30;;;21.80;41.20;;;;;;5009024;28;20026;-69
2022/06/21 12:15:35;;;;;;;5.40;1.63;;;21.50;41.00;;;;;;5009164;28;20109;-69
2022/06/21 12:18:05;;;;;;;6.85;1.95;;;21.60;42.10;;;;;;4990855;28;20079;-72
2022/06/21 12:20:57;;;;;;;4.20;1.00;;;22.00;40.30;;;;;;5009136;28;20113;-71
2022/06/21 12:23:22;;;;;;;;;;;22.20;40.40;;;;;;5014286;28;20046;-69
2022/06/21 12:25:49;;;;;;;3.78;1.42;;;22.30;40.70;;;;;;5009060;28;19951;-68
2022/06/21 12:28:20;;;;;;;2.25;1.25;;;22.10;39.80;;;;;;5008380;28;20033;-70
2022/06/21 12:30:47;;;;;;;6.85;1.27;;;21.80;41.00;;;;;;5009089;28;20087;-71
2022/06/21 12:33:15;;;;;;;5.25;1.38;;;21.60;41.90;;;;;;5008787;28;20060;-72
2022/06/21 12:35:56;;;;;;;3.67;0.90;;;22.00;42.60;;;;;;5008766;28;20022;-70
2022/06/21 12:38:39;;;;;;;5.32;1.45;;;22.10;42.20;;;;;;5008566;28;20033;-70
2022/06/21 12:41:05;;;;;;;51.33;25.38;;;22.40;41.80;;;;;;5008534;28;20026;-72
2022/06/21 12:43:37;;;;;;;12.70;4.85;;;22.50;40.50;;;;;;5008575;28;20041;-70
2022/06/21 12:46:11;;;;;;;4.55;1.17;;;22.50;40.50;;;;;;5008843;28;20109;-70
2022/06/21 12:48:49;;;;;;;19.20;8.60;;;22.30;40.30;;;;;;5008220;28;20119;-70
2022/06/21 12:52:00;;;;;;;5.47;1.60;;;22.30;41.20;;;;;;5008713;28;20023;-70
2022/06/21 12:54:51;;;;;;;5.68;1.75;;;22.50;40.90;;;;;;5008893;28;20033;-70
2022/06/21 12:57:32;;;;;;;6.25;2.15;;;22.50;40.30;;;;;;5007618;28;20275;-70
2022/06/21 13:00:10;;;;;;;6.22;1.50;;;22.60;40.10;;;;;;4990816;28;20022;-72
2022/06/21 13:03:11;;;;;;;3.83;1.10;;;22.80;39.50;;;;;;5008234;28;20314;-72
2022/06/21 13:05:55;;;;;;;;;;;22.70;38.80;;;;;;5008765;28;20087;-70
2022/06/21 13:08:32;;;;;;;4.85;1.08;;;22.40;37.70;;;;;;5007992;28;19909;-70
2022/06/21 13:11:19;;;;;;;2.40;0.90;;;22.10;40.20;;;;;;5008431;28;20022;-70
2022/06/21 13:14:16;;;;;;;5.65;1.65;;;22.40;39.60;;;;;;5008778;28;20026;-71
2022/06/21 13:16:54;;;;;;;2.45;0.98;;;22.00;39.20;;;;;;4990531;28;20021;-69
2022/06/21 13:19:33;;;;;;;4.63;1.20;;;21.70;39.60;;;;;;5007985;28;20491;-69
2022/06/21 13:22:31;;;;;;;3.67;1.00;;;21.70;40.40;;;;;;5008240;28;20160;-70
2022/06/21 13:25:09;;;;;;;144.90;83.78;;;22.00;40.50;;;;;;5008276;28;20403;-71
2022/06/21 13:28:16;;;;;;;9.35;3.47;;;22.40;38.90;;;;;;5007779;28;20030;-68
2022/06/21 13:31:14;;;;;;;19.33;6.68;;;22.50;39.10;;;;;;5043610;28;20037;-71
2022/06/21 13:33:59;;;;;;;113.90;55.13;;;22.70;38.90;;;;;;5030092;28;20502;-71
2022/06/21 13:36:43;;;;;;;4.18;1.20;;;22.80;39.00;;;;;;4990402;28;20034;-69
2022/06/21 13:39:31;;;;;;;4.47;1.58;;;23.00;38.60;;;;;;5007389;28;20022;-68
2022/06/21 13:42:41;;;;;;;3.75;1.35;;;23.00;39.30;;;;;;5008522;28;20033;-69
2022/06/21 13:45:39;;;;;;;3.00;1.10;;;22.50;39.00;;;;;;5017792;28;20045;-69
2022/06/21 13:48:17;;;;;;;7.32;1.88;;;22.30;39.30;;;;;;5011008;28;20368;-70
2022/06/21 13:51:05;;;;;;;4.10;1.10;;;22.30;39.30;;;;;;5011433;28;20026;-70
2022/06/21 13:53:51;;;;;;;5.25;1.38;;;22.00;39.80;;;;;;5010904;28;20024;-70
2022/06/21 13:56:19;;;;;;;7.72;1.45;;;21.80;39.90;;;;;;5011389;28;20384;-70
2022/06/21 13:58:51;;;;;;;4.05;1.00;;;21.90;40.50;;;;;;5011108;28;20030;-70
2022/06/21 14:01:28;;;;;;;5.63;1.10;;;21.90;40.00;;;;;;5011304;28;20026;-70
2022/06/21 14:04:05;;;;;;;4.43;1.13;;;22.00;40.90;;;;;;5011410;28;20041;-70
2022/06/21 14:06:49;;;;;;;5.65;1.58;;;22.30;40.80;;;;;;5011032;28;20030;-70